Time;durP1;ratioP1;P1;durP2;ratioP2;P2;SDS_P1;SDS_P2;PMS_P1;PMS_P2;Temp;Humidity;BMP_temperature;BMP_pressure;BME280_temperature;BME280_humidity;BME280_pressure;Samples;Min_cycle;Max_cycle;Signal;HPM_P1;HPM_P2
2022/05/13 00:01:53;;;;;;;7.93;3.60;;;13.90;99.90;;;;;;5043532;28;20415;-78
2022/05/13 00:04:20;;;;;;;4.10;2.80;;;13.80;99.90;;;;;;5042829;28;20422;-78
2022/05/13 00:06:47;;;;;;;4.63;3.00;;;13.80;99.90;;;;;;5043316;28;20529;-78
2022/05/13 00:09:13;;;;;;;4.97;3.20;;;13.80;99.90;;;;;;5042992;28;20867;-77
2022/05/13 00:11:39;;;;;;;4.53;3.30;;;13.90;99.90;;;;;;5043193;28;20427;-78
2022/05/13 00:14:06;;;;;;;4.07;2.70;;;13.80;99.90;;;;;;5041770;28;20427;-78
2022/05/13 00:16:36;;;;;;;4.37;2.90;;;13.70;99.90;;;;;;5041916;28;20470;-78
2022/05/13 00:19:04;;;;;;;8.13;3.10;;;13.70;99.90;;;;;;5041901;28;20437;-78
2022/05/13 00:21:30;;;;;;;4.13;2.60;;;13.70;99.90;;;;;;5043311;28;20427;-77
2022/05/13 00:23:56;;;;;;;4.93;2.90;;;13.70;99.90;;;;;;5042996;28;20500;-78
2022/05/13 00:26:22;;;;;;;4.13;2.90;;;13.70;99.90;;;;;;5041511;28;20675;-78
2022/05/13 00:28:47;;;;;;;5.33;3.10;;;13.60;99.90;;;;;;5041819;28;20219;-78
2022/05/13 00:31:13;;;;;;;3.67;2.80;;;13.60;99.90;;;;;;5043982;28;20241;-77
2022/05/13 00:33:39;;;;;;;4.80;2.83;;;13.60;99.90;;;;;;5042832;28;20177;-78
2022/05/13 00:36:05;;;;;;;5.00;2.73;;;13.60;99.90;;;;;;5041378;28;20606;-78
2022/05/13 00:38:32;;;;;;;5.40;2.80;;;13.60;99.90;;;;;;5041956;28;20183;-78
2022/05/13 00:40:57;;;;;;;3.77;2.73;;;13.50;99.90;;;;;;5040583;28;20513;-79
2022/05/13 00:43:49;;;;;;;5.20;3.80;;;13.50;99.90;;;;;;5041679;28;20418;-78
2022/05/13 00:46:16;;;;;;;6.13;3.00;;;13.60;99.90;;;;;;5040786;28;20184;-78
2022/05/13 00:48:43;;;;;;;5.13;2.57;;;13.70;99.90;;;;;;5040894;28;20445;-78
2022/05/13 00:51:11;;;;;;;6.60;2.87;;;13.70;99.90;;;;;;5040401;28;20427;-78
2022/05/13 00:53:38;;;;;;;4.30;2.40;;;13.80;99.90;;;;;;5041094;28;20423;-78
2022/05/13 00:56:05;;;;;;;11.93;2.83;;;13.90;99.90;;;;;;5040552;28;20450;-78
2022/05/13 00:58:34;;;;;;;5.20;2.57;;;14.00;99.90;;;;;;5041185;28;20825;-78
2022/05/13 01:01:00;;;;;;;3.40;2.30;;;14.00;99.90;;;;;;5040243;28;20862;-78
2022/05/13 01:03:26;;;;;;;3.43;2.50;;;14.10;99.90;;;;;;5040585;28;20423;-78
2022/05/13 01:05:57;;;;;;;3.60;2.00;;;14.10;99.90;;;;;;5041201;28;20181;-78
2022/05/13 01:08:24;;;;;;;3.80;2.20;;;14.10;99.90;;;;;;5040565;28;20435;-78
2022/05/13 01:10:51;;;;;;;4.53;2.10;;;14.00;99.90;;;;;;5041058;28;20436;-78
2022/05/13 01:13:23;;;;;;;3.80;2.43;;;14.00;99.90;;;;;;5041530;28;20427;-78
2022/05/13 01:15:51;;;;;;;5.90;2.00;;;13.90;99.90;;;;;;5042228;28;20466;-78
2022/05/13 01:18:33;;;;;;;4.30;1.87;;;13.80;99.90;;;;;;5041929;28;20446;-78
2022/05/13 01:21:00;;;;;;;5.50;2.07;;;13.70;99.90;;;;;;5041309;28;20429;-78
2022/05/13 01:23:30;;;;;;;3.20;2.00;;;13.70;99.90;;;;;;5041703;28;20510;-77
2022/05/13 01:26:14;;;;;;;3.70;2.37;;;13.60;99.90;;;;;;5041515;28;20434;-78
2022/05/13 01:28:50;;;;;;;4.53;2.10;;;13.60;99.90;;;;;;5045320;28;20433;-78
2022/05/13 01:31:25;;;;;;;4.80;2.20;;;13.50;99.90;;;;;;5043231;28;21035;-78
2022/05/13 01:33:51;;;;;;;5.60;2.37;;;13.50;99.90;;;;;;5044167;28;20418;-78
2022/05/13 01:36:17;;;;;;;2.80;1.80;;;13.50;99.90;;;;;;5044306;28;20450;-78
2022/05/13 01:38:43;;;;;;;3.47;2.13;;;13.50;99.90;;;;;;5043993;28;20788;-78
2022/05/13 01:41:10;;;;;;;4.93;1.97;;;13.30;99.90;;;;;;5043794;28;20203;-78
2022/05/13 01:43:37;;;;;;;3.87;1.90;;;13.30;99.90;;;;;;5044408;28;20483;-78
2022/05/13 01:46:03;;;;;;;3.30;2.17;;;13.30;99.90;;;;;;5043909;28;20489;-77
2022/05/13 01:48:30;;;;;;;5.57;2.40;;;13.20;99.90;;;;;;5043003;28;20426;-78
2022/05/13 01:50:56;;;;;;;3.80;2.10;;;13.20;99.90;;;;;;5043271;28;20430;-78
2022/05/13 01:53:23;;;;;;;4.50;2.20;;;13.20;99.90;;;;;;5044794;28;20422;-78
2022/05/13 01:55:49;;;;;;;4.20;2.23;;;13.20;99.90;;;;;;5042297;28;20528;-78
2022/05/13 01:58:20;;;;;;;4.80;2.70;;;13.30;99.90;;;;;;5043166;28;20495;-77
2022/05/13 02:00:47;;;;;;;5.93;2.27;;;13.20;99.90;;;;;;5042720;28;20426;-78
2022/05/13 02:05:58;;;;;;;4.50;2.10;;;13.20;99.90;;;;;;5044233;28;20417;-77
2022/05/13 02:11:08;;;;;;;4.33;2.10;;;13.20;99.90;;;;;;5074847;22;20239;-84
2022/05/13 02:13:34;;;;;;;3.53;2.23;;;13.20;99.90;;;;;;5039463;28;20867;-84
2022/05/13 02:16:00;;;;;;;3.27;2.00;;;13.30;99.90;;;;;;5034439;28;20462;-84
2022/05/13 02:18:26;;;;;;;5.17;2.40;;;13.30;99.90;;;;;;5034516;28;20407;-83
2022/05/13 02:20:52;;;;;;;5.93;2.60;;;13.30;99.90;;;;;;5016540;28;20431;-84
2022/05/13 02:23:20;;;;;;;3.83;2.33;;;13.30;99.90;;;;;;5016666;28;20415;-84
2022/05/13 02:25:46;;;;;;;5.60;2.30;;;13.30;99.90;;;;;;5016550;28;20184;-83
2022/05/13 02:28:11;;;;;;;3.37;1.93;;;13.30;99.90;;;;;;5016643;28;20883;-83
2022/05/13 02:30:37;;;;;;;8.00;2.27;;;13.30;99.90;;;;;;5034031;28;20196;-83
2022/05/13 02:33:02;;;;;;;4.67;2.10;;;13.20;99.90;;;;;;5016554;28;20675;-83
2022/05/13 02:35:29;;;;;;;4.60;2.00;;;13.30;99.90;;;;;;5016632;28;20252;-84
2022/05/13 02:37:56;;;;;;;4.43;1.97;;;13.30;99.90;;;;;;5016389;28;20478;-84
2022/05/13 02:41:11;;;;;;;5.27;2.27;;;13.30;99.90;;;;;;5033809;28;20558;-84
2022/05/13 02:43:08;;;;;;;5.40;2.03;;;13.20;99.90;;;;;;5033901;28;20427;-84
2022/05/13 02:45:33;;;;;;;4.03;2.10;;;13.30;99.90;;;;;;5016127;28;20425;-84
2022/05/13 02:47:59;;;;;;;3.27;1.77;;;13.20;99.90;;;;;;5016475;28;20243;-84
2022/05/13 02:50:25;;;;;;;3.80;1.93;;;13.20;99.90;;;;;;5015849;28;20208;-83
2022/05/13 02:52:51;;;;;;;3.70;1.90;;;13.10;99.90;;;;;;5016156;28;20279;-84
2022/05/13 02:55:19;;;;;;;7.10;2.30;;;13.00;99.90;;;;;;5015879;28;21282;-83
2022/05/13 02:57:45;;;;;;;2.80;1.80;;;13.00;99.90;;;;;;5016001;28;20234;-83
2022/05/13 03:00:11;;;;;;;3.00;1.97;;;12.90;99.90;;;;;;5015826;28;20439;-85
2022/05/13 03:02:37;;;;;;;2.67;1.70;;;12.90;99.90;;;;;;5015834;28;20430;-83
2022/05/13 03:05:04;;;;;;;4.20;1.97;;;12.90;99.90;;;;;;5015952;28;20411;-83
2022/05/13 03:07:29;;;;;;;4.30;2.27;;;12.90;99.90;;;;;;5033424;28;20176;-83
2022/05/13 03:09:55;;;;;;;6.10;2.30;;;12.90;99.90;;;;;;5015692;28;20553;-84
2022/05/13 03:12:20;;;;;;;2.80;1.70;;;12.90;99.90;;;;;;5015524;28;20235;-85
2022/05/13 03:14:46;;;;;;;3.97;2.10;;;12.70;99.90;;;;;;5033302;28;20188;-83
2022/05/13 03:17:11;;;;;;;3.20;1.80;;;12.70;99.90;;;;;;5015611;28;20176;-83
2022/05/13 03:19:38;;;;;;;5.70;1.83;;;12.70;99.90;;;;;;5033136;28;20200;-83
2022/05/13 03:22:05;;;;;;;3.03;1.63;;;12.70;99.90;;;;;;5015530;28;20181;-84
2022/05/13 03:24:30;;;;;;;3.73;1.80;;;12.70;99.90;;;;;;5033139;28;20446;-83
2022/05/13 03:26:56;;;;;;;2.93;1.53;;;12.70;99.90;;;;;;5015395;28;20450;-84
2022/05/13 03:29:22;;;;;;;3.40;1.67;;;12.50;99.90;;;;;;5033144;28;20200;-83
2022/05/13 03:31:48;;;;;;;3.37;1.90;;;12.50;99.90;;;;;;5015483;28;20177;-83
2022/05/13 03:34:13;;;;;;;4.87;1.83;;;12.50;99.90;;;;;;5015466;28;20835;-83
2022/05/13 03:36:39;;;;;;;3.00;1.77;;;12.50;99.90;;;;;;5015304;28;20211;-83
2022/05/13 03:39:08;;;;;;;3.93;1.47;;;12.40;99.90;;;;;;5015354;28;20200;-83
2022/05/13 03:41:34;;;;;;;4.50;1.83;;;12.40;99.90;;;;;;5032803;28;20204;-84
2022/05/13 03:44:00;;;;;;;4.17;1.63;;;12.40;99.90;;;;;;5033092;28;20403;-83
2022/05/13 03:46:25;;;;;;;4.30;1.80;;;12.40;99.90;;;;;;5020507;28;20434;-84
2022/05/13 03:48:51;;;;;;;3.80;1.77;;;12.40;99.90;;;;;;5019368;28;20222;-83
2022/05/13 03:51:17;;;;;;;4.57;1.87;;;12.30;99.90;;;;;;5018150;28;20184;-83
2022/05/13 03:53:42;;;;;;;2.70;1.63;;;12.30;99.90;;;;;;5020316;28;20184;-83
2022/05/13 03:56:08;;;;;;;2.90;1.50;;;12.30;99.90;;;;;;5020643;28;20177;-83
2022/05/13 03:58:34;;;;;;;3.53;1.83;;;12.30;99.90;;;;;;5038945;28;20199;-83
2022/05/13 04:01:02;;;;;;;11.60;1.93;;;12.30;99.90;;;;;;5015586;28;20263;-84
2022/05/13 04:03:28;;;;;;;5.90;1.90;;;12.20;99.90;;;;;;5037090;28;20238;-84
2022/05/13 04:11:22;;;;;;;3.73;1.80;;;12.20;99.90;;;;;;5039235;28;20765;-83
2022/05/13 04:16:32;;;;;;;4.30;1.73;;;12.30;99.90;;;;;;5032830;28;20984;-83
2022/05/13 04:19:00;;;;;;;5.27;1.60;;;12.40;99.90;;;;;;5032201;28;20431;-83
2022/05/13 04:21:29;;;;;;;4.77;2.23;;;12.40;99.90;;;;;;5014380;28;20609;-83
2022/05/13 04:23:57;;;;;;;3.63;1.70;;;12.50;99.90;;;;;;5014618;28;20415;-83
2022/05/13 04:26:23;;;;;;;4.30;1.77;;;12.50;99.90;;;;;;5031999;28;20490;-83
2022/05/13 04:28:50;;;;;;;5.00;2.17;;;12.50;99.90;;;;;;5014439;28;20435;-83
2022/05/13 04:31:20;;;;;;;4.23;1.70;;;12.40;99.90;;;;;;5014277;28;20420;-83
2022/05/13 04:33:46;;;;;;;3.20;1.30;;;12.40;99.90;;;;;;5014562;28;20454;-83
2022/05/13 04:36:12;;;;;;;8.60;2.30;;;12.40;99.90;;;;;;5015063;28;20530;-83
2022/05/13 04:38:38;;;;;;;3.87;1.60;;;12.40;99.90;;;;;;5018251;28;20449;-83
2022/05/13 04:43:50;;;;;;;5.27;1.70;;;12.40;99.90;;;;;;5036835;28;20430;-83
2022/05/13 04:46:16;;;;;;;4.10;1.90;;;12.40;99.90;;;;;;5035706;28;20459;-84
2022/05/13 04:48:41;;;;;;;3.13;1.80;;;12.50;99.90;;;;;;5016929;28;20494;-83
2022/05/13 04:51:07;;;;;;;3.93;1.93;;;12.50;99.90;;;;;;5034893;28;20485;-84
2022/05/13 04:53:36;;;;;;;6.03;2.23;;;12.80;99.90;;;;;;5035241;28;20176;-83
2022/05/13 04:56:28;;;;;;;3.47;2.30;;;12.80;99.90;;;;;;5035177;28;20184;-83
2022/05/13 04:58:54;;;;;;;4.73;1.90;;;12.70;99.90;;;;;;5017217;28;20450;-84
2022/05/13 05:01:20;;;;;;;4.43;1.80;;;12.70;99.90;;;;;;5034885;28;20442;-83
2022/05/13 05:03:46;;;;;;;6.37;2.20;;;12.60;99.90;;;;;;5038862;28;20176;-83
2022/05/13 05:06:13;;;;;;;5.07;2.30;;;12.70;99.90;;;;;;5038339;28;20984;-84
2022/05/13 05:08:40;;;;;;;3.40;2.10;;;12.70;99.90;;;;;;5039531;28;20227;-84
2022/05/13 05:11:07;;;;;;;3.00;1.87;;;12.60;99.90;;;;;;5021295;28;20447;-83
2022/05/13 05:13:39;;;;;;;4.60;1.53;;;12.70;99.90;;;;;;5038424;28;20495;-83
2022/05/13 05:16:06;;;;;;;3.90;1.83;;;12.70;99.90;;;;;;5021968;28;20419;-84
2022/05/13 05:18:32;;;;;;;2.93;1.67;;;12.60;99.90;;;;;;5020510;28;20433;-84
2022/05/13 05:20:58;;;;;;;4.13;1.90;;;12.80;99.90;;;;;;5020608;28;20431;-83
2022/05/13 05:23:30;;;;;;;6.33;1.80;;;12.80;99.90;;;;;;5021087;28;20419;-83
2022/05/13 05:25:56;;;;;;;4.53;2.40;;;12.90;99.90;;;;;;5038305;28;20200;-84
2022/05/13 05:28:22;;;;;;;5.00;2.73;;;12.90;99.90;;;;;;5019901;28;20785;-83
2022/05/13 05:30:47;;;;;;;3.60;2.00;;;12.90;99.90;;;;;;5020364;28;20480;-83
2022/05/13 05:33:13;;;;;;;6.40;2.27;;;12.80;99.90;;;;;;5019885;28;20184;-83
2022/05/13 05:35:39;;;;;;;5.40;1.63;;;12.90;99.90;;;;;;5020140;28;20636;-83
2022/05/13 05:38:07;;;;;;;7.13;2.00;;;13.00;99.90;;;;;;5020113;28;20431;-83
2022/05/13 05:40:34;;;;;;;3.97;1.90;;;13.10;99.90;;;;;;5019534;28;20447;-83
2022/05/13 05:43:08;;;;;;;3.40;2.27;;;13.20;99.90;;;;;;5037981;28;20414;-83
2022/05/13 05:45:37;;;;;;;5.70;3.83;;;13.50;99.90;;;;;;5019496;28;20462;-83
2022/05/13 05:48:03;;;;;;;4.47;2.00;;;13.50;99.90;;;;;;5036670;28;20953;-83
2022/05/13 05:50:31;;;;;;;3.50;2.30;;;13.50;99.90;;;;;;5018264;28;20447;-84
2022/05/13 05:52:57;;;;;;;6.43;2.93;;;13.60;99.90;;;;;;5018879;28;20480;-83
2022/05/13 05:58:11;;;;;;;5.17;2.33;;;13.80;99.90;;;;;;5039482;28;20572;-83
2022/05/13 06:00:41;;;;;;;3.10;2.03;;;13.80;99.90;;;;;;5020028;28;20478;-83
2022/05/13 06:03:07;;;;;;;5.03;2.37;;;13.90;99.90;;;;;;5018103;28;20417;-84
2022/05/13 06:05:33;;;;;;;5.03;3.73;;;13.90;99.90;;;;;;5035649;28;20931;-83
2022/05/13 06:08:01;;;;;;;7.63;1.70;;;13.90;99.90;;;;;;5035397;28;20780;-83
2022/05/13 06:10:28;;;;;;;3.70;2.17;;;14.00;99.90;;;;;;5017124;28;20454;-83
2022/05/13 06:12:54;;;;;;;3.20;2.00;;;14.20;99.90;;;;;;5016741;28;20538;-82
2022/05/13 06:15:23;;;;;;;4.00;1.90;;;14.20;99.90;;;;;;5017332;28;20518;-83
2022/05/13 06:17:54;;;;;;;3.43;1.90;;;14.30;99.90;;;;;;5017264;28;20618;-82
2022/05/13 06:20:23;;;;;;;6.20;2.30;;;14.60;99.90;;;;;;5017422;28;20524;-82
2022/05/13 06:22:49;;;;;;;3.90;2.43;;;14.60;99.90;;;;;;5018074;28;20477;-80
2022/05/13 06:25:17;;;;;;;4.47;2.20;;;14.70;99.90;;;;;;5018110;28;20459;-82
2022/05/13 06:27:44;;;;;;;5.70;2.03;;;14.70;99.90;;;;;;5036421;28;20243;-82
2022/05/13 06:30:14;;;;;;;4.20;2.10;;;14.90;99.90;;;;;;5017409;28;20529;-82
2022/05/13 06:32:40;;;;;;;7.73;1.97;;;15.00;99.90;;;;;;5036041;28;20434;-81
2022/05/13 06:35:06;;;;;;;5.97;1.93;;;14.90;99.90;;;;;;5035621;28;20407;-82
2022/05/13 06:37:31;;;;;;;4.70;2.20;;;15.00;99.90;;;;;;5036627;28;20187;-81
2022/05/13 06:39:57;;;;;;;6.27;1.93;;;15.10;99.90;;;;;;5035472;28;20439;-81
2022/05/13 06:42:23;;;;;;;6.80;1.70;;;15.30;99.90;;;;;;5017643;28;20184;-81
2022/05/13 06:44:48;;;;;;;4.40;2.03;;;15.50;99.90;;;;;;5035121;28;20267;-81
2022/05/13 06:47:15;;;;;;;7.77;1.97;;;15.60;99.90;;;;;;5035195;28;20181;-81
2022/05/13 06:49:40;;;;;;;3.40;1.50;;;15.60;99.90;;;;;;5035225;28;20782;-81
2022/05/13 06:52:06;;;;;;;5.50;2.00;;;15.60;99.90;;;;;;5035179;28;20407;-81
2022/05/13 06:54:32;;;;;;;4.20;1.80;;;15.40;99.90;;;;;;5035186;28;20180;-82
2022/05/13 06:56:57;;;;;;;3.43;2.23;;;15.60;99.90;;;;;;5016585;28;20663;-82
2022/05/13 06:59:23;;;;;;;4.80;1.90;;;15.60;99.90;;;;;;5017019;28;20208;-81
2022/05/13 07:01:49;;;;;;;5.73;2.17;;;15.50;99.90;;;;;;5033889;28;20179;-81
2022/05/13 07:04:15;;;;;;;5.43;2.13;;;15.40;99.90;;;;;;5016101;28;20208;-81
2022/05/13 07:06:40;;;;;;;7.57;2.20;;;15.60;99.90;;;;;;5033534;28;20656;-80
2022/05/13 07:09:06;;;;;;;3.90;1.60;;;15.70;99.90;;;;;;5033686;28;20713;-81
2022/05/13 07:11:32;;;;;;;2.80;1.50;;;15.70;99.90;;;;;;5015827;28;20176;-81
2022/05/13 07:13:58;;;;;;;3.57;1.83;;;15.80;99.90;;;;;;5033679;28;20647;-81
2022/05/13 07:16:26;;;;;;;4.70;1.40;;;15.90;99.90;;;;;;5033521;28;20410;-80
2022/05/13 07:18:51;;;;;;;3.37;1.90;;;16.00;99.90;;;;;;5015710;28;20208;-81
2022/05/13 07:21:17;;;;;;;6.93;2.20;;;16.10;99.90;;;;;;5015598;28;20932;-81
2022/05/13 07:23:43;;;;;;;4.20;1.70;;;16.10;99.90;;;;;;5015275;28;20230;-81
2022/05/13 07:26:09;;;;;;;3.30;1.37;;;16.20;99.90;;;;;;5014525;28;20274;-81
2022/05/13 07:28:36;;;;;;;3.73;1.50;;;16.50;99.90;;;;;;5032217;28;20433;-85
2022/05/13 07:31:01;;;;;;;3.00;1.83;;;16.70;99.90;;;;;;5014959;28;20425;-85
2022/05/13 07:33:30;;;;;;;3.47;2.50;;;16.80;99.90;;;;;;5015349;28;20419;-85
2022/05/13 07:35:56;;;;;;;3.93;1.50;;;16.80;99.90;;;;;;5032922;28;20796;-85
2022/05/13 07:38:22;;;;;;;4.20;1.90;;;16.70;99.90;;;;;;5033032;28;20419;-85
2022/05/13 07:43:32;;;;;;;3.17;1.80;;;17.00;99.90;;;;;;5030376;28;20866;-83
2022/05/13 07:45:58;;;;;;;5.63;2.10;;;17.10;99.90;;;;;;5024606;28;20467;-83
2022/05/13 07:48:24;;;;;;;4.47;1.87;;;17.20;99.90;;;;;;5015370;28;20172;-84
2022/05/13 07:50:51;;;;;;;4.00;1.43;;;17.20;99.90;;;;;;5032055;28;20192;-83
2022/05/13 07:53:19;;;;;;;3.00;1.63;;;17.60;99.90;;;;;;5032770;28;20415;-84
2022/05/13 07:55:45;;;;;;;2.70;1.57;;;18.10;99.90;;;;;;5032335;28;20427;-83
2022/05/13 07:58:11;;;;;;;3.60;1.90;;;18.60;99.90;;;;;;5015038;28;20423;-83
2022/05/13 08:00:38;;;;;;;3.17;1.37;;;19.00;99.90;;;;;;5014095;28;20259;-85
2022/05/13 08:03:14;;;;;;;3.37;1.60;;;19.20;99.90;;;;;;5031519;28;20185;-84
2022/05/13 08:05:44;;;;;;;3.10;1.57;;;19.40;99.90;;;;;;5030743;28;20997;-85
2022/05/13 08:08:15;;;;;;;4.43;1.37;;;19.60;99.90;;;;;;5014462;28;20415;-84
2022/05/13 08:10:46;;;;;;;2.53;1.60;;;19.70;99.90;;;;;;5013885;28;20466;-83
2022/05/13 08:13:11;;;;;;;5.10;1.43;;;19.90;99.90;;;;;;5014665;28;20404;-84
2022/05/13 08:15:37;;;;;;;5.47;1.93;;;20.00;99.90;;;;;;5014073;28;20787;-84
2022/05/13 08:18:04;;;;;;;4.30;1.77;;;20.20;99.90;;;;;;5032149;28;20226;-83
2022/05/13 08:20:31;;;;;;;3.10;1.63;;;20.60;99.90;;;;;;5031568;28;20985;-84
2022/05/13 08:22:57;;;;;;;4.50;1.60;;;20.60;99.90;;;;;;5014978;28;20926;-83
2022/05/13 08:25:22;;;;;;;5.13;1.70;;;20.70;99.90;;;;;;5030361;28;20509;-82
2022/05/13 08:27:48;;;;;;;3.50;1.83;;;20.80;99.90;;;;;;5014599;28;20203;-84
2022/05/13 08:30:15;;;;;;;3.60;1.80;;;21.00;99.90;;;;;;5030695;28;20196;-81
2022/05/13 08:32:41;;;;;;;3.63;1.50;;;21.30;99.90;;;;;;5032014;28;20169;-82
2022/05/13 08:35:07;;;;;;;7.10;1.63;;;21.50;99.90;;;;;;5014195;28;20426;-82
2022/05/13 08:37:43;;;;;;;3.07;1.60;;;21.70;99.90;;;;;;5031926;28;20902;-82
2022/05/13 08:40:32;;;;;;;4.47;1.93;;;21.70;99.80;;;;;;5031846;28;20446;-80
2022/05/13 08:43:02;;;;;;;3.93;1.60;;;22.00;99.90;;;;;;5013566;28;20423;-81
2022/05/13 08:45:27;;;;;;;3.80;2.27;;;22.10;99.90;;;;;;5031423;28;20561;-82
2022/05/13 08:47:56;;;;;;;3.47;1.80;;;22.00;99.60;;;;;;5014072;28;20549;-82
2022/05/13 08:51:00;;;;;;;2.83;1.43;;;22.00;98.60;;;;;;5029722;28;20239;-82
2022/05/13 08:53:36;;;;;;;2.80;1.60;;;21.90;98.10;;;;;;4996093;28;20450;-81
2022/05/13 08:56:10;;;;;;;3.33;1.50;;;22.20;97.10;;;;;;5032883;28;20868;-83
2022/05/13 08:58:43;;;;;;;3.17;1.13;;;22.40;96.80;;;;;;5020541;28;20804;-83
2022/05/13 09:01:14;;;;;;;4.23;1.50;;;22.50;94.20;;;;;;5032925;28;20498;-83
2022/05/13 09:03:50;;;;;;;3.60;1.80;;;23.10;95.80;;;;;;5031781;28;20416;-83
2022/05/13 09:06:30;;;;;;;3.30;1.63;;;23.30;97.00;;;;;;5013990;28;20514;-83
2022/05/13 09:09:00;;;;;;;5.07;1.40;;;23.60;92.40;;;;;;5015321;28;20435;-83
2022/05/13 09:11:52;;;;;;;2.80;1.50;;;24.20;90.50;;;;;;5014372;28;20949;-83
2022/05/13 09:14:30;;;;;;;4.87;1.70;;;25.00;87.70;;;;;;5014285;28;20513;-84
2022/05/13 09:17:17;;;;;;;3.53;1.50;;;25.10;81.90;;;;;;5014173;28;20802;-85
2022/05/13 09:19:48;;;;;;;3.57;1.67;;;25.10;79.10;;;;;;5016545;28;20778;-83
2022/05/13 09:22:14;;;;;;;5.53;1.67;;;24.70;77.30;;;;;;5015568;28;20783;-82
2022/05/13 09:24:45;;;;;;;3.73;1.70;;;25.30;78.90;;;;;;5013622;28;20427;-83
2022/05/13 09:27:11;;;;;;;4.47;1.37;;;25.80;78.60;;;;;;5012877;28;20201;-83
2022/05/13 09:29:40;;;;;;;6.17;1.57;;;26.00;71.90;;;;;;5013612;28;20435;-82
2022/05/13 09:32:12;;;;;;;2.70;1.10;;;26.40;70.00;;;;;;5013114;28;20506;-81
2022/05/13 09:34:46;;;;;;;3.17;1.27;;;26.60;65.90;;;;;;5031737;28;20396;-82
2022/05/13 09:37:19;;;;;;;4.60;1.20;;;25.30;70.70;;;;;;5013532;28;20446;-80
2022/05/13 09:39:46;;;;;;;2.40;1.20;;;25.70;70.40;;;;;;5013726;28;20438;-82
2022/05/13 09:42:33;;;;;;;2.67;1.10;;;25.70;63.30;;;;;;5010180;28;20496;-82
2022/05/13 09:45:27;;;;;;;3.13;1.50;;;26.30;62.00;;;;;;5033332;28;20419;-84
2022/05/13 09:48:17;;;;;;;4.67;1.23;;;25.70;62.30;;;;;;5037754;28;20411;-80
2022/05/13 09:50:55;;;;;;;3.40;1.30;;;25.50;60.80;;;;;;5019904;28;20977;-82
2022/05/13 09:53:21;;;;;;;3.50;1.50;;;25.90;66.00;;;;;;5017114;28;20441;-82
2022/05/13 09:55:48;;;;;;;2.60;1.13;;;25.00;63.30;;;;;;5018186;28;20545;-82
2022/05/13 09:58:20;;;;;;;2.57;1.10;;;24.20;65.20;;;;;;5027984;28;20279;-83
2022/05/13 10:00:52;;;;;;;4.10;1.23;;;23.50;66.70;;;;;;5017730;28;20463;-84
2022/05/13 10:03:36;;;;;;;2.70;1.30;;;24.40;65.50;;;;;;5019053;28;20929;-83
2022/05/13 10:06:21;;;;;;;2.70;1.20;;;24.70;67.70;;;;;;5021142;28;20458;-82
2022/05/13 10:14:35;;;;;;;7.83;1.20;;;22.60;64.80;;;;;;5042855;28;20437;-82
2022/05/13 10:17:11;;;;;;;2.83;1.30;;;22.60;67.20;;;;;;5040513;28;20462;-84
2022/05/13 10:19:39;;;;;;;3.90;1.63;;;23.10;69.20;;;;;;5019146;28;20521;-83
2022/05/13 10:22:26;;;;;;;2.30;1.00;;;22.50;66.80;;;;;;5018442;28;20473;-83
2022/05/13 10:25:25;;;;;;;3.67;1.20;;;21.80;66.70;;;;;;5037017;28;20791;-84
2022/05/13 10:28:02;;;;;;;2.93;1.20;;;21.20;67.90;;;;;;5023420;28;20856;-81
2022/05/13 10:30:47;;;;;;;3.17;1.23;;;20.80;73.80;;;;;;5018361;28;20443;-84
2022/05/13 10:33:34;;;;;;;4.37;1.50;;;20.90;73.90;;;;;;5022831;28;20786;-82
2022/05/13 10:36:07;;;;;;;3.30;1.23;;;21.20;75.30;;;;;;5021775;28;20476;-81
2022/05/13 10:38:44;;;;;;;2.67;1.20;;;21.30;75.20;;;;;;5039451;28;20412;-82
2022/05/13 10:41:33;;;;;;;3.10;1.10;;;21.10;73.00;;;;;;5037712;28;20418;-82
2022/05/13 10:44:14;;;;;;;3.30;1.23;;;21.20;74.20;;;;;;5020281;28;20509;-82
2022/05/13 10:46:58;;;;;;;2.30;1.20;;;21.30;72.60;;;;;;5036261;28;20462;-83
2022/05/13 10:49:31;;;;;;;3.90;1.50;;;21.60;73.40;;;;;;5020958;28;20950;-83
2022/05/13 10:52:17;;;;;;;2.40;1.10;;;21.90;77.80;;;;;;5018511;28;20423;-83
2022/05/13 10:55:00;;;;;;;2.50;0.90;;;21.70;74.40;;;;;;5036103;28;20468;-82
2022/05/13 10:57:59;;;;;;;3.47;1.20;;;21.50;71.50;;;;;;5017909;28;20945;-82
2022/05/13 11:01:03;;;;;;;2.50;1.50;;;21.20;71.30;;;;;;5035635;28;20817;-82
2022/05/13 11:03:44;;;;;;;3.30;1.00;;;21.50;75.00;;;;;;4985259;28;20414;-81
2022/05/13 11:06:36;;;;;;;2.73;1.30;;;21.60;76.10;;;;;;5018854;28;20461;-81
2022/05/13 11:09:24;;;;;;;2.77;1.00;;;21.60;72.30;;;;;;5015326;28;20450;-82
2022/05/13 11:11:56;;;;;;;3.03;1.20;;;21.90;73.10;;;;;;5033191;28;20969;-85
2022/05/13 11:14:52;;;;;;;3.77;1.17;;;22.00;72.70;;;;;;5030301;28;20506;-84
2022/05/13 11:17:33;;;;;;;3.70;1.60;;;21.80;71.50;;;;;;5015577;28;20411;-84
2022/05/13 11:20:01;;;;;;;5.20;1.37;;;21.90;77.00;;;;;;5033458;28;20431;-85
2022/05/13 11:22:42;;;;;;;2.50;1.10;;;21.80;76.20;;;;;;5015280;28;20451;-85
2022/05/13 11:28:24;;;;;;;4.67;1.07;;;21.90;70.40;;;;;;5029094;28;20466;-85
2022/05/13 11:31:27;;;;;;;2.83;1.30;;;22.00;75.90;;;;;;5033819;28;20470;-85
2022/05/13 11:34:11;;;;;;;2.83;1.13;;;22.20;74.30;;;;;;5015512;28;20785;-81
2022/05/13 11:36:59;;;;;;;2.30;1.00;;;22.20;72.10;;;;;;5015725;28;20439;-81
2022/05/13 11:39:56;;;;;;;3.00;1.70;;;22.00;73.10;;;;;;5015367;28;20435;-84
2022/05/13 11:42:34;;;;;;;2.13;1.10;;;21.80;75.90;;;;;;5014768;28;20473;-86
2022/05/13 11:45:27;;;;;;;5.30;1.40;;;22.00;75.20;;;;;;5015227;28;20450;-86
2022/05/13 11:48:10;;;;;;;2.63;1.23;;;22.10;73.10;;;;;;5015028;28;20411;-85
2022/05/13 11:50:35;;;;;;;4.60;1.07;;;22.00;73.20;;;;;;5014827;28;20470;-84
2022/05/13 11:53:02;;;;;;;2.10;1.10;;;22.00;72.30;;;;;;5014985;28;20412;-85
2022/05/13 11:55:47;;;;;;;2.30;1.00;;;22.10;76.00;;;;;;5014876;28;20191;-85
2022/05/13 11:58:46;;;;;;;2.37;1.27;;;22.00;74.40;;;;;;5014735;28;20419;-85
2022/05/13 12:01:12;;;;;;;4.63;1.20;;;21.80;73.80;;;;;;5032321;28;20395;-85
2022/05/13 12:03:39;;;;;;;2.37;1.20;;;21.80;75.60;;;;;;5014816;28;20538;-85
2022/05/13 12:06:09;;;;;;;4.27;1.40;;;21.70;73.50;;;;;;5014522;28;20295;-85
2022/05/13 12:08:45;;;;;;;4.93;1.70;;;21.70;76.00;;;;;;5014520;28;20426;-85
2022/05/13 12:11:17;;;;;;;2.60;1.30;;;21.90;78.40;;;;;;5013799;28;20785;-85
2022/05/13 12:13:45;;;;;;;4.53;1.40;;;21.80;76.10;;;;;;5032253;28;20399;-85
2022/05/13 12:16:26;;;;;;;2.20;1.10;;;21.90;77.10;;;;;;5014453;28;20419;-85
2022/05/13 12:19:00;;;;;;;3.60;1.50;;;22.30;77.10;;;;;;5010450;28;20483;-85
2022/05/13 12:21:43;;;;;;;2.37;1.30;;;23.10;73.70;;;;;;5022201;28;20981;-87
2022/05/13 12:24:11;;;;;;;2.80;1.20;;;23.70;70.80;;;;;;5016341;28;20427;-86
2022/05/13 12:26:52;;;;;;;5.13;1.37;;;24.20;67.90;;;;;;5010698;28;20551;-86
2022/05/13 12:29:35;;;;;;;2.60;1.10;;;23.90;67.30;;;;;;5007199;28;20443;-85
2022/05/13 12:32:01;;;;;;;3.23;1.63;;;24.00;67.60;;;;;;5014246;28;20427;-84
2022/05/13 12:37:35;;;;;;;3.73;1.40;;;23.70;69.80;;;;;;5033304;28;20179;-83
2022/05/13 12:40:00;;;;;;;3.13;1.40;;;23.40;70.60;;;;;;5032438;28;21059;-84
2022/05/13 12:42:47;;;;;;;4.30;1.30;;;23.50;72.20;;;;;;5032295;28;20508;-85
2022/05/13 12:45:38;;;;;;;3.90;1.57;;;23.50;71.30;;;;;;5015708;28;20211;-83
2022/05/13 12:48:04;;;;;;;4.50;1.30;;;23.40;71.40;;;;;;5016693;28;20426;-83
2022/05/13 12:50:41;;;;;;;4.53;1.40;;;23.30;68.90;;;;;;5032272;28;20431;-83
2022/05/13 12:53:34;;;;;;;2.77;1.13;;;23.10;66.60;;;;;;5031970;28;20271;-83
2022/05/13 12:56:08;;;;;;;2.57;1.20;;;23.00;68.40;;;;;;5002553;28;20470;-83
2022/05/13 12:58:37;;;;;;;3.17;1.30;;;23.00;71.00;;;;;;5014934;28;20414;-83
2022/05/13 13:01:03;;;;;;;3.20;1.10;;;23.10;66.20;;;;;;5014042;28;20922;-83
2022/05/13 13:03:37;;;;;;;2.50;1.40;;;23.00;70.20;;;;;;5032059;28;20435;-83
2022/05/13 13:06:11;;;;;;;5.37;1.60;;;23.10;72.10;;;;;;5031710;28;20870;-83
2022/05/13 13:08:42;;;;;;;2.83;1.13;;;23.10;71.50;;;;;;5014141;28;20422;-83
2022/05/13 13:11:33;;;;;;;2.30;1.00;;;23.10;68.50;;;;;;5013662;28;20809;-83
2022/05/13 13:14:20;;;;;;;2.63;1.23;;;23.10;70.70;;;;;;5032172;28;20407;-83
2022/05/13 13:16:53;;;;;;;4.73;1.83;;;23.10;69.30;;;;;;5031493;28;20400;-83
2022/05/13 13:19:23;;;;;;;4.30;1.40;;;23.10;67.70;;;;;;5014291;28;20443;-83
2022/05/13 13:22:12;;;;;;;2.40;1.33;;;23.20;68.30;;;;;;5013648;28;20403;-83
2022/05/13 13:24:40;;;;;;;3.33;1.40;;;23.40;69.50;;;;;;5035542;28;20478;-84
2022/05/13 13:27:12;;;;;;;2.57;1.20;;;24.00;72.40;;;;;;5018061;28;20458;-83
2022/05/13 13:29:41;;;;;;;6.40;1.20;;;24.00;71.10;;;;;;5017807;28;20784;-86
2022/05/13 13:32:22;;;;;;;2.77;1.37;;;24.20;70.10;;;;;;5035262;28;20415;-86
2022/05/13 13:34:50;;;;;;;3.77;1.40;;;24.00;65.10;;;;;;5074967;22;20527;-84
2022/05/13 13:37:19;;;;;;;2.73;1.37;;;23.80;65.40;;;;;;5056932;28;20444;-84
2022/05/13 13:40:43;;;;;;;3.73;1.17;;;23.80;67.40;;;;;;5054145;28;20429;-82
2022/05/13 13:46:40;;;;;;;3.47;1.10;;;23.80;67.50;;;;;;4935855;29;20996;-83